Aeroporto :
LOGIN :

Iscrizione | Disclaimer

   EN    FR    IT 

 










Sommario :    VFR   VFR Marginale   IFR   IFR Intensivo   IFR Molto Intensivo
Visibilità : 
Base nubi : 
>= 8 km
>= 3000ft
5 / 8 km
1000 / 3000 ft
1500m / 5 km
500 / 1000 ft
800 / 1500m
200 / 500 ft
< 800m
< 200 ft
Simboli :   Temporali  Nebbia  Neve Forte  Precipitazioni Forti  Vento > 20 kt
SIGMETs :   Varie  Temporali  Ghiacco  Turbolenza  Onda orograficha  Ceneri Vulcaniche






- Altitudine del aeroporto : 375 ft
- Codice IATA : MST


EHBK - Maastricht Aachen

ULTIMO METAR :
  • 250355Z AUTO 20007KT 9999 NCD 08/07 Q1014 NOSIG

METARs OBSOLETI :
  • 250325Z AUTO 20006KT 9999 NCD 08/07 Q1014
  • 250255Z AUTO 20006KT 9999 NCD 08/07 Q1014
  • 250225Z AUTO 21007KT 9999 NCD 08/07 Q1014
  • 250155Z AUTO 21007KT 9999 NCD 09/07 Q1013
  • 250125Z AUTO 21006KT 9999 NCD 09/08 Q1013

TAF TAF EHBK
Valido dal 25 a 00 ore il 26 a 06 ore UTC


242303Z 2500/2606 21005KT CAVOK
BECMG 2507/2510 24013KT
BECMG 2521/2524 6000 -DZRA BKN014
TEMPO 2601/2606 4000 DZRA BKN008



MetMap, La meteo Aeronautica in un colpo d'occhio ! - Copyright ORBIFLY Dicembre 2007 - Disclaimer

ORBIFLY MET'MAP TEAM :

Programmazione e sviluppo : Alexandra Zaïnal
Concezione : Baudouin d'Aumeries
Supporto tecnico e logistico : Manuel Goepfert
Aiuto : Marc-Olivier Méhu
Aiuto per la traduzione : Arnaldo La Scala

Contatto : metmap@orbifly.com




FONTI E CREDITI :

   NOAA